sensor_id;sensor_type;location;lat;lon;timestamp;pressure;altitude;pressure_sealevel;temperature;humidity
39491;BME280;25175;50.140;18.990;2023-01-26T00:01:20;99226.22;;;1.37;58.30
39491;BME280;25175;50.140;18.990;2023-01-26T00:04:30;99226.50;;;1.34;58.30
39491;BME280;25175;50.140;18.990;2023-01-26T00:07:35;99219.53;;;1.34;58.53
39491;BME280;25175;50.140;18.990;2023-01-26T00:10:42;99220.50;;;1.33;58.57
39491;BME280;25175;50.140;18.990;2023-01-26T00:13:52;99197.31;;;1.13;58.61
39491;BME280;25175;50.140;18.990;2023-01-26T00:16:57;99216.81;;;1.26;58.61
39491;BME280;25175;50.140;18.990;2023-01-26T00:20:05;99214.47;;;1.23;58.57
39491;BME280;25175;50.140;18.990;2023-01-26T00:23:10;99210.97;;;1.24;58.86
39491;BME280;25175;50.140;18.990;2023-01-26T00:26:18;99168.31;;;1.00;58.85
39491;BME280;25175;50.140;18.990;2023-01-26T00:29:24;99196.25;;;1.25;58.93
39491;BME280;25175;50.140;18.990;2023-01-26T00:32:34;99195.59;;;1.23;58.73
39491;BME280;25175;50.140;18.990;2023-01-26T00:35:41;99143.94;;;0.93;58.79
39491;BME280;25175;50.140;18.990;2023-01-26T00:38:47;99200.06;;;1.21;59.01
39491;BME280;25175;50.140;18.990;2023-01-26T00:41:52;99184.69;;;1.19;58.78
39491;BME280;25175;50.140;18.990;2023-01-26T00:45:10;99184.81;;;1.18;59.16
39491;BME280;25175;50.140;18.990;2023-01-26T00:48:14;99195.72;;;1.21;59.12
39491;BME280;25175;50.140;18.990;2023-01-26T00:51:22;99187.00;;;1.22;58.73
39491;BME280;25175;50.140;18.990;2023-01-26T00:54:27;99189.47;;;1.24;58.87
39491;BME280;25175;50.140;18.990;2023-01-26T00:57:32;99173.41;;;1.30;58.97
39491;BME280;25175;50.140;18.990;2023-01-26T01:00:37;99174.66;;;1.35;58.84
39491;BME280;25175;50.140;18.990;2023-01-26T01:03:42;99171.25;;;1.35;58.78
39491;BME280;25175;50.140;18.990;2023-01-26T01:06:50;99154.09;;;1.24;58.45
39491;BME280;25175;50.140;18.990;2023-01-26T01:09:55;99173.88;;;1.44;58.44
39491;BME280;25175;50.140;18.990;2023-01-26T01:13:00;99178.94;;;1.46;58.32
39491;BME280;25175;50.140;18.990;2023-01-26T01:16:06;99172.69;;;1.48;58.58
39491;BME280;25175;50.140;18.990;2023-01-26T01:19:15;99141.44;;;1.21;58.66
39491;BME280;25175;50.140;18.990;2023-01-26T01:22:24;99181.19;;;1.39;58.80
39491;BME280;25175;50.140;18.990;2023-01-26T01:25:28;99166.63;;;1.38;58.72
39491;BME280;25175;50.140;18.990;2023-01-26T01:28:36;99171.50;;;1.32;59.09
39491;BME280;25175;50.140;18.990;2023-01-26T01:31:41;99160.06;;;1.25;59.36
39491;BME280;25175;50.140;18.990;2023-01-26T01:34:47;99150.69;;;1.24;58.81
39491;BME280;25175;50.140;18.990;2023-01-26T01:37:54;99151.38;;;1.26;58.96
39491;BME280;25175;50.140;18.990;2023-01-26T01:40:59;99139.94;;;1.19;59.28
39491;BME280;25175;50.140;18.990;2023-01-26T01:44:12;99143.47;;;1.18;59.47
39491;BME280;25175;50.140;18.990;2023-01-26T01:47:24;99149.84;;;1.14;59.08
39491;BME280;25175;50.140;18.990;2023-01-26T01:50:34;99135.97;;;1.15;59.24
39491;BME280;25175;50.140;18.990;2023-01-26T01:53:50;99147.00;;;1.17;59.01
39491;BME280;25175;50.140;18.990;2023-01-26T01:57:01;99144.13;;;1.10;59.47
39491;BME280;25175;50.140;18.990;2023-01-26T02:00:19;99134.22;;;1.15;60.15
39491;BME280;25175;50.140;18.990;2023-01-26T02:03:27;99141.56;;;1.20;59.68
39491;BME280;25175;50.140;18.990;2023-01-26T02:06:40;99136.94;;;1.23;59.43
39491;BME280;25175;50.140;18.990;2023-01-26T02:09:51;99114.88;;;1.10;59.30
39491;BME280;25175;50.140;18.990;2023-01-26T02:13:11;99128.09;;;1.26;59.39
39491;BME280;25175;50.140;18.990;2023-01-26T02:16:17;99102.47;;;1.04;59.69
39491;BME280;25175;50.140;18.990;2023-01-26T02:19:30;99132.31;;;1.17;59.57
39491;BME280;25175;50.140;18.990;2023-01-26T02:22:51;99132.16;;;1.19;59.56
39491;BME280;25175;50.140;18.990;2023-01-26T02:26:11;99142.66;;;1.27;59.59
39491;BME280;25175;50.140;18.990;2023-01-26T02:29:20;99138.59;;;1.34;59.09
39491;BME280;25175;50.140;18.990;2023-01-26T02:32:25;99137.78;;;1.33;59.39
39491;BME280;25175;50.140;18.990;2023-01-26T02:35:30;99134.78;;;1.28;59.64
39491;BME280;25175;50.140;18.990;2023-01-26T02:38:39;99132.31;;;1.27;59.96
39491;BME280;25175;50.140;18.990;2023-01-26T02:41:54;99128.25;;;1.34;60.00
39491;BME280;25175;50.140;18.990;2023-01-26T02:45:15;99110.53;;;1.29;59.38
39491;BME280;25175;50.140;18.990;2023-01-26T02:48:21;99113.00;;;1.31;59.92
39491;BME280;25175;50.140;18.990;2023-01-26T02:51:38;99108.78;;;1.30;60.11
39491;BME280;25175;50.140;18.990;2023-01-26T02:54:43;99105.13;;;1.32;60.04
39491;BME280;25175;50.140;18.990;2023-01-26T02:58:06;99104.72;;;1.37;59.97
39491;BME280;25175;50.140;18.990;2023-01-26T03:01:11;99082.28;;;1.37;59.91
39491;BME280;25175;50.140;18.990;2023-01-26T03:04:21;99083.22;;;1.36;59.61
39491;BME280;25175;50.140;18.990;2023-01-26T03:07:27;99093.69;;;1.35;59.82
39491;BME280;25175;50.140;18.990;2023-01-26T03:10:31;99076.16;;;1.29;59.67
39491;BME280;25175;50.140;18.990;2023-01-26T03:13:39;99071.94;;;1.28;59.78
39491;BME280;25175;50.140;18.990;2023-01-26T03:16:43;99070.03;;;1.30;60.02
39491;BME280;25175;50.140;18.990;2023-01-26T03:19:48;99061.72;;;1.36;60.36
39491;BME280;25175;50.140;18.990;2023-01-26T03:23:07;99051.25;;;1.28;60.19
39491;BME280;25175;50.140;18.990;2023-01-26T03:26:27;99062.69;;;1.44;59.66
39491;BME280;25175;50.140;18.990;2023-01-26T03:29:47;99070.31;;;1.46;59.82
39491;BME280;25175;50.140;18.990;2023-01-26T03:32:52;99059.66;;;1.39;60.07
39491;BME280;25175;50.140;18.990;2023-01-26T03:35:57;99064.31;;;1.45;60.17
39491;BME280;25175;50.140;18.990;2023-01-26T03:39:02;99056.72;;;1.44;59.92
39491;BME280;25175;50.140;18.990;2023-01-26T03:42:08;99061.34;;;1.50;59.61
39491;BME280;25175;50.140;18.990;2023-01-26T03:45:29;99057.53;;;1.44;59.62
39491;BME280;25175;50.140;18.990;2023-01-26T03:48:46;99057.00;;;1.41;60.36
39491;BME280;25175;50.140;18.990;2023-01-26T03:52:04;99058.63;;;1.42;60.15
39491;BME280;25175;50.140;18.990;2023-01-26T03:55:23;99053.31;;;1.43;60.08
39491;BME280;25175;50.140;18.990;2023-01-26T03:58:41;99048.97;;;1.44;59.92
39491;BME280;25175;50.140;18.990;2023-01-26T04:01:48;99032.50;;;1.45;60.04
39491;BME280;25175;50.140;18.990;2023-01-26T04:05:07;99027.03;;;1.38;59.76
39491;BME280;25175;50.140;18.990;2023-01-26T04:08:28;99035.19;;;1.34;60.54
39491;BME280;25175;50.140;18.990;2023-01-26T04:11:37;99029.91;;;1.35;60.26
39491;BME280;25175;50.140;18.990;2023-01-26T04:14:42;99036.81;;;1.35;60.36
39491;BME280;25175;50.140;18.990;2023-01-26T04:18:07;99018.06;;;1.33;60.41
39491;BME280;25175;50.140;18.990;2023-01-26T04:21:24;99023.78;;;1.36;60.23
39491;BME280;25175;50.140;18.990;2023-01-26T04:24:36;99018.72;;;1.35;60.11
39491;BME280;25175;50.140;18.990;2023-01-26T04:27:42;99027.44;;;1.34;60.23
39491;BME280;25175;50.140;18.990;2023-01-26T04:30:48;99013.97;;;1.30;60.01
39491;BME280;25175;50.140;18.990;2023-01-26T04:33:55;99013.16;;;1.30;60.26
39491;BME280;25175;50.140;18.990;2023-01-26T04:37:00;99013.41;;;1.27;60.32
39491;BME280;25175;50.140;18.990;2023-01-26T04:40:17;99008.22;;;1.27;60.26
39491;BME280;25175;50.140;18.990;2023-01-26T04:43:23;99016.41;;;1.32;60.22
39491;BME280;25175;50.140;18.990;2023-01-26T04:46:28;99000.75;;;1.33;60.50
39491;BME280;25175;50.140;18.990;2023-01-26T04:49:37;99009.06;;;1.37;60.29
39491;BME280;25175;50.140;18.990;2023-01-26T04:52:41;99014.00;;;1.40;60.06
39491;BME280;25175;50.140;18.990;2023-01-26T04:55:47;99009.63;;;1.40;59.83
39491;BME280;25175;50.140;18.990;2023-01-26T04:58:52;99010.56;;;1.39;59.90
39491;BME280;25175;50.140;18.990;2023-01-26T05:01:59;99014.22;;;1.37;59.76
39491;BME280;25175;50.140;18.990;2023-01-26T05:05:08;99003.34;;;1.33;60.11
39491;BME280;25175;50.140;18.990;2023-01-26T05:08:14;98993.00;;;1.33;60.29
39491;BME280;25175;50.140;18.990;2023-01-26T05:11:19;98989.75;;;1.31;59.90
39491;BME280;25175;50.140;18.990;2023-01-26T05:14:35;98990.56;;;1.32;60.20
39491;BME280;25175;50.140;18.990;2023-01-26T05:18:03;98995.06;;;1.30;60.46
39491;BME280;25175;50.140;18.990;2023-01-26T05:21:34;98987.31;;;1.30;59.90
39491;BME280;25175;50.140;18.990;2023-01-26T05:24:39;98988.25;;;1.29;60.06
39491;BME280;25175;50.140;18.990;2023-01-26T05:27:59;98982.38;;;1.27;59.68
39491;BME280;25175;50.140;18.990;2023-01-26T05:31:04;98980.94;;;1.24;60.15
39491;BME280;25175;50.140;18.990;2023-01-26T05:34:10;98992.72;;;1.27;60.16
39491;BME280;25175;50.140;18.990;2023-01-26T05:37:17;98991.81;;;1.28;59.79
39491;BME280;25175;50.140;18.990;2023-01-26T05:40:22;98983.09;;;1.29;59.98
39491;BME280;25175;50.140;18.990;2023-01-26T05:43:28;98991.63;;;1.29;59.90
39491;BME280;25175;50.140;18.990;2023-01-26T05:46:47;98995.06;;;1.30;59.99
39491;BME280;25175;50.140;18.990;2023-01-26T05:49:51;98989.22;;;1.28;60.03
39491;BME280;25175;50.140;18.990;2023-01-26T05:53:04;98981.59;;;1.26;60.03
39491;BME280;25175;50.140;18.990;2023-01-26T05:56:11;98994.66;;;1.25;60.06
39491;BME280;25175;50.140;18.990;2023-01-26T05:59:22;98987.03;;;1.23;60.25
39491;BME280;25175;50.140;18.990;2023-01-26T06:02:27;98987.84;;;1.24;60.05
39491;BME280;25175;50.140;18.990;2023-01-26T06:05:32;98984.59;;;1.22;59.83
39491;BME280;25175;50.140;18.990;2023-01-26T06:08:45;98992.19;;;1.23;60.07
39491;BME280;25175;50.140;18.990;2023-01-26T06:12:08;98984.44;;;1.23;60.02
39491;BME280;25175;50.140;18.990;2023-01-26T06:15:40;98991.38;;;1.23;60.01
39491;BME280;25175;50.140;18.990;2023-01-26T06:18:47;98994.94;;;1.22;59.80
39491;BME280;25175;50.140;18.990;2023-01-26T06:21:52;99008.94;;;1.19;60.03
39491;BME280;25175;50.140;18.990;2023-01-26T06:25:00;98996.56;;;1.13;60.18
39491;BME280;25175;50.140;18.990;2023-01-26T06:28:05;98990.28;;;1.16;60.33
39491;BME280;25175;50.140;18.990;2023-01-26T06:31:11;98992.59;;;1.19;60.62
39491;BME280;25175;50.140;18.990;2023-01-26T06:34:17;98972.34;;;1.05;60.07
39491;BME280;25175;50.140;18.990;2023-01-26T06:37:24;98988.94;;;1.12;60.14
39491;BME280;25175;50.140;18.990;2023-01-26T06:40:31;98982.53;;;1.16;60.18
39491;BME280;25175;50.140;18.990;2023-01-26T06:43:37;98988.53;;;1.16;60.23
39491;BME280;25175;50.140;18.990;2023-01-26T06:46:41;98991.25;;;1.15;60.23
39491;BME280;25175;50.140;18.990;2023-01-26T06:49:46;98981.72;;;1.15;60.32
39491;BME280;25175;50.140;18.990;2023-01-26T06:52:54;98979.03;;;1.17;60.26
39491;BME280;25175;50.140;18.990;2023-01-26T06:56:25;98971.25;;;1.17;60.48
39491;BME280;25175;50.140;18.990;2023-01-26T06:59:53;98974.78;;;1.16;60.54
39491;BME280;25175;50.140;18.990;2023-01-26T07:03:30;98975.06;;;1.13;60.21
39491;BME280;25175;50.140;18.990;2023-01-26T07:06:35;98962.97;;;1.13;60.41
39491;BME280;25175;50.140;18.990;2023-01-26T07:09:40;98960.38;;;1.13;60.42
39491;BME280;25175;50.140;18.990;2023-01-26T07:12:47;98933.72;;;1.03;60.49
39491;BME280;25175;50.140;18.990;2023-01-26T07:15:59;98957.66;;;1.15;60.39
39491;BME280;25175;50.140;18.990;2023-01-26T07:19:04;98955.88;;;1.15;60.22
39491;BME280;25175;50.140;18.990;2023-01-26T07:22:09;98939.31;;;1.08;60.03
39491;BME280;25175;50.140;18.990;2023-01-26T07:25:13;98947.06;;;1.18;60.07
39491;BME280;25175;50.140;18.990;2023-01-26T07:28:22;98953.19;;;1.17;60.04
39491;BME280;25175;50.140;18.990;2023-01-26T07:31:26;98884.78;;;0.83;60.04
39491;BME280;25175;50.140;18.990;2023-01-26T07:34:31;98938.59;;;1.16;60.05
39491;BME280;25175;50.140;18.990;2023-01-26T07:37:36;98931.00;;;1.05;60.06
39491;BME280;25175;50.140;18.990;2023-01-26T07:40:44;98951.94;;;1.11;60.21
39491;BME280;25175;50.140;18.990;2023-01-26T07:43:51;98955.47;;;1.10;60.29
39491;BME280;25175;50.140;18.990;2023-01-26T07:46:57;98944.19;;;1.11;60.42
39491;BME280;25175;50.140;18.990;2023-01-26T07:50:01;98823.66;;;0.36;60.11
39491;BME280;25175;50.140;18.990;2023-01-26T07:53:08;98921.91;;;0.91;60.21
39491;BME280;25175;50.140;18.990;2023-01-26T07:56:14;98960.09;;;1.16;60.16
39491;BME280;25175;50.140;18.990;2023-01-26T07:59:25;98954.94;;;1.16;60.27
39491;BME280;25175;50.140;18.990;2023-01-26T08:02:29;98960.78;;;1.18;60.31
39491;BME280;25175;50.140;18.990;2023-01-26T08:05:34;98948.53;;;1.20;60.02
39491;BME280;25175;50.140;18.990;2023-01-26T08:08:40;98963.22;;;1.20;60.06
39491;BME280;25175;50.140;18.990;2023-01-26T08:11:45;98962.44;;;1.19;60.05
39491;BME280;25175;50.140;18.990;2023-01-26T08:14:52;98948.00;;;1.17;59.99
39491;BME280;25175;50.140;18.990;2023-01-26T08:17:57;98975.47;;;1.18;60.21
39491;BME280;25175;50.140;18.990;2023-01-26T08:21:04;98946.50;;;1.14;60.27
39491;BME280;25175;50.140;18.990;2023-01-26T08:24:10;98959.97;;;1.18;60.37
39491;BME280;25175;50.140;18.990;2023-01-26T08:27:15;98928.41;;;1.14;60.46
39491;BME280;25175;50.140;18.990;2023-01-26T08:30:25;98934.53;;;1.23;60.00
39491;BME280;25175;50.140;18.990;2023-01-26T08:33:30;98940.78;;;1.30;59.91
39491;BME280;25175;50.140;18.990;2023-01-26T08:36:37;98946.34;;;1.35;59.73
39491;BME280;25175;50.140;18.990;2023-01-26T08:39:43;98938.59;;;1.35;59.71
39491;BME280;25175;50.140;18.990;2023-01-26T08:42:48;98936.66;;;1.37;59.70
39491;BME280;25175;50.140;18.990;2023-01-26T08:45:55;98944.44;;;1.37;59.66
39491;BME280;25175;50.140;18.990;2023-01-26T08:49:00;98931.53;;;1.27;59.32
39491;BME280;25175;50.140;18.990;2023-01-26T08:52:05;98934.94;;;1.28;59.76
39491;BME280;25175;50.140;18.990;2023-01-26T08:55:10;98942.13;;;1.34;59.96
39491;BME280;25175;50.140;18.990;2023-01-26T08:58:15;98952.88;;;1.39;59.58
39491;BME280;25175;50.140;18.990;2023-01-26T09:01:23;98930.44;;;1.30;59.31
39491;BME280;25175;50.140;18.990;2023-01-26T09:04:28;98950.56;;;1.36;59.30
39491;BME280;25175;50.140;18.990;2023-01-26T09:07:33;98955.47;;;1.39;59.21
39491;BME280;25175;50.140;18.990;2023-01-26T09:10:37;98940.22;;;1.36;59.39
39491;BME280;25175;50.140;18.990;2023-01-26T09:13:48;98961.19;;;1.42;59.51
39491;BME280;25175;50.140;18.990;2023-01-26T09:16:58;98949.75;;;1.45;59.22
39491;BME280;25175;50.140;18.990;2023-01-26T09:20:05;98957.38;;;1.46;59.09
39491;BME280;25175;50.140;18.990;2023-01-26T09:23:11;98959.28;;;1.44;59.19
39491;BME280;25175;50.140;18.990;2023-01-26T09:26:18;98940.78;;;1.30;58.99
39491;BME280;25175;50.140;18.990;2023-01-26T09:29:23;98954.41;;;1.41;59.25
39491;BME280;25175;50.140;18.990;2023-01-26T09:32:31;98955.91;;;1.44;59.28
39491;BME280;25175;50.140;18.990;2023-01-26T09:35:35;98953.97;;;1.46;59.50
39491;BME280;25175;50.140;18.990;2023-01-26T09:38:41;98935.34;;;1.42;59.22
39491;BME280;25175;50.140;18.990;2023-01-26T09:41:57;98932.47;;;1.45;59.37
39491;BME280;25175;50.140;18.990;2023-01-26T09:45:23;98937.25;;;1.50;59.29
39491;BME280;25175;50.140;18.990;2023-01-26T09:48:41;98933.00;;;1.49;59.27
39491;BME280;25175;50.140;18.990;2023-01-26T09:51:57;98917.34;;;1.50;59.15
39491;BME280;25175;50.140;18.990;2023-01-26T09:55:14;98918.84;;;1.53;59.26
39491;BME280;25175;50.140;18.990;2023-01-26T09:58:32;98917.63;;;1.57;58.78
39491;BME280;25175;50.140;18.990;2023-01-26T10:01:45;98913.09;;;1.59;59.02
39491;BME280;25175;50.140;18.990;2023-01-26T10:05:11;98906.97;;;1.60;58.77
39491;BME280;25175;50.140;18.990;2023-01-26T10:08:21;98918.00;;;1.62;58.50
39491;BME280;25175;50.140;18.990;2023-01-26T10:11:33;98719.44;;;0.46;58.64
39491;BME280;25175;50.140;18.990;2023-01-26T10:14:48;98909.28;;;1.63;58.48
39491;BME280;25175;50.140;18.990;2023-01-26T10:17:59;98910.66;;;1.67;58.35
39491;BME280;25175;50.140;18.990;2023-01-26T10:21:17;98907.75;;;1.70;58.36
39491;BME280;25175;50.140;18.990;2023-01-26T10:24:26;98898.91;;;1.72;58.78
39491;BME280;25175;50.140;18.990;2023-01-26T10:27:32;98894.13;;;1.77;58.15
39491;BME280;25175;50.140;18.990;2023-01-26T10:30:39;98905.16;;;1.79;58.37
39491;BME280;25175;50.140;18.990;2023-01-26T10:33:50;98872.94;;;1.64;58.35
39491;BME280;25175;50.140;18.990;2023-01-26T10:37:19;98905.38;;;1.86;57.96
39491;BME280;25175;50.140;18.990;2023-01-26T10:40:25;98893.13;;;1.88;58.32
39491;BME280;25175;50.140;18.990;2023-01-26T10:43:35;98873.44;;;1.77;58.02
39491;BME280;25175;50.140;18.990;2023-01-26T10:46:43;98884.28;;;1.90;57.85
39491;BME280;25175;50.140;18.990;2023-01-26T10:49:48;98882.34;;;1.92;57.92
39491;BME280;25175;50.140;18.990;2023-01-26T10:53:00;98873.94;;;1.90;58.12
39491;BME280;25175;50.140;18.990;2023-01-26T10:56:12;98884.81;;;1.94;57.48
39491;BME280;25175;50.140;18.990;2023-01-26T10:59:31;98853.69;;;1.76;57.79
39491;BME280;25175;50.140;18.990;2023-01-26T11:02:49;98878.53;;;1.96;58.07
39491;BME280;25175;50.140;18.990;2023-01-26T11:06:05;98861.34;;;1.95;57.42
39491;BME280;25175;50.140;18.990;2023-01-26T11:09:23;98865.16;;;2.01;57.56
39491;BME280;25175;50.140;18.990;2023-01-26T11:12:31;98870.00;;;2.04;57.45
39491;BME280;25175;50.140;18.990;2023-01-26T11:15:38;98825.91;;;1.78;57.19
39491;BME280;25175;50.140;18.990;2023-01-26T11:18:55;98869.47;;;2.10;57.24
39491;BME280;25175;50.140;18.990;2023-01-26T11:22:07;98866.56;;;2.13;57.30
39491;BME280;25175;50.140;18.990;2023-01-26T11:25:24;98870.78;;;2.14;57.26
39491;BME280;25175;50.140;18.990;2023-01-26T11:28:46;98865.97;;;2.19;57.00
39491;BME280;25175;50.140;18.990;2023-01-26T11:32:11;98861.50;;;2.21;57.01
39491;BME280;25175;50.140;18.990;2023-01-26T11:35:34;98848.38;;;2.22;57.45
39491;BME280;25175;50.140;18.990;2023-01-26T11:38:51;98835.16;;;2.25;57.09
39491;BME280;25175;50.140;18.990;2023-01-26T11:42:22;98718.63;;;1.55;57.08
39491;BME280;25175;50.140;18.990;2023-01-26T11:45:44;98841.69;;;2.29;56.62
39491;BME280;25175;50.140;18.990;2023-01-26T11:49:21;98819.19;;;2.30;56.84
39491;BME280;25175;50.140;18.990;2023-01-26T11:52:48;98819.75;;;2.24;56.60
39491;BME280;25175;50.140;18.990;2023-01-26T11:56:19;98816.59;;;2.30;57.10
39491;BME280;25175;50.140;18.990;2023-01-26T11:59:45;98822.28;;;2.33;56.81
39491;BME280;25175;50.140;18.990;2023-01-26T12:03:01;98800.91;;;2.31;56.65
39491;BME280;25175;50.140;18.990;2023-01-26T12:06:16;98799.28;;;2.30;56.44
39491;BME280;25175;50.140;18.990;2023-01-26T12:09:29;98803.03;;;2.36;56.27
39491;BME280;25175;50.140;18.990;2023-01-26T12:12:45;98792.84;;;2.34;56.38
39491;BME280;25175;50.140;18.990;2023-01-26T12:16:02;98799.22;;;2.40;56.21
39491;BME280;25175;50.140;18.990;2023-01-26T12:19:33;98794.41;;;2.45;56.35
39491;BME280;25175;50.140;18.990;2023-01-26T12:22:52;98787.59;;;2.44;56.20
39491;BME280;25175;50.140;18.990;2023-01-26T12:26:06;98786.31;;;2.48;55.89
39491;BME280;25175;50.140;18.990;2023-01-26T12:29:21;98785.44;;;2.57;55.63
39491;BME280;25175;50.140;18.990;2023-01-26T12:32:33;98783.19;;;2.62;55.98
39491;BME280;25175;50.140;18.990;2023-01-26T12:35:49;98788.66;;;2.59;55.79
39491;BME280;25175;50.140;18.990;2023-01-26T12:39:12;98785.28;;;2.58;55.76
39491;BME280;25175;50.140;18.990;2023-01-26T12:42:36;98785.13;;;2.60;55.65
39491;BME280;25175;50.140;18.990;2023-01-26T12:45:52;98774.78;;;2.60;56.02
39491;BME280;25175;50.140;18.990;2023-01-26T12:49:10;98782.56;;;2.60;56.14
39491;BME280;25175;50.140;18.990;2023-01-26T12:52:26;98753.84;;;2.53;56.24
39491;BME280;25175;50.140;18.990;2023-01-26T12:55:43;98633.59;;;1.70;56.77
39491;BME280;25175;50.140;18.990;2023-01-26T12:58:53;98761.97;;;2.58;56.57
39491;BME280;25175;50.140;18.990;2023-01-26T13:02:10;98767.38;;;2.65;56.49
39491;BME280;25175;50.140;18.990;2023-01-26T13:05:31;98760.41;;;2.65;56.73
39491;BME280;25175;50.140;18.990;2023-01-26T13:08:46;98765.44;;;2.67;56.29
39491;BME280;25175;50.140;18.990;2023-01-26T13:11:55;98765.94;;;2.70;56.12
39491;BME280;25175;50.140;18.990;2023-01-26T13:15:05;98759.66;;;2.73;56.24
39491;BME280;25175;50.140;18.990;2023-01-26T13:18:17;98757.19;;;2.71;56.47
39491;BME280;25175;50.140;18.990;2023-01-26T13:21:41;98775.19;;;2.73;56.28
39491;BME280;25175;50.140;18.990;2023-01-26T13:24:48;98766.44;;;2.74;55.88
39491;BME280;25175;50.140;18.990;2023-01-26T13:28:01;98767.78;;;2.78;56.01
39491;BME280;25175;50.140;18.990;2023-01-26T13:31:09;98767.47;;;2.81;56.04
39491;BME280;25175;50.140;18.990;2023-01-26T13:34:20;98762.28;;;2.81;55.71
39491;BME280;25175;50.140;18.990;2023-01-26T13:37:38;98761.16;;;2.83;56.02
39491;BME280;25175;50.140;18.990;2023-01-26T13:40:49;98745.44;;;2.77;55.95
39491;BME280;25175;50.140;18.990;2023-01-26T13:44:03;98764.72;;;2.82;55.24
39491;BME280;25175;50.140;18.990;2023-01-26T13:47:19;98758.88;;;2.80;55.28
39491;BME280;25175;50.140;18.990;2023-01-26T13:50:33;98766.16;;;2.77;55.69
39491;BME280;25175;50.140;18.990;2023-01-26T13:53:47;98763.50;;;2.69;55.69
39491;BME280;25175;50.140;18.990;2023-01-26T13:57:02;98757.50;;;2.68;55.84
39491;BME280;25175;50.140;18.990;2023-01-26T14:00:10;98748.78;;;2.69;55.96
39491;BME280;25175;50.140;18.990;2023-01-26T14:03:20;98709.53;;;2.39;56.13
39491;BME280;25175;50.140;18.990;2023-01-26T14:06:26;98745.69;;;2.66;56.21
39491;BME280;25175;50.140;18.990;2023-01-26T14:09:47;98750.25;;;2.72;55.70
39491;BME280;25175;50.140;18.990;2023-01-26T14:12:56;98752.84;;;2.72;55.63
39491;BME280;25175;50.140;18.990;2023-01-26T14:16:06;98749.28;;;2.73;55.77
39491;BME280;25175;50.140;18.990;2023-01-26T14:19:24;98748.16;;;2.75;55.94
39491;BME280;25175;50.140;18.990;2023-01-26T14:22:30;98759.84;;;2.79;55.61
39491;BME280;25175;50.140;18.990;2023-01-26T14:25:39;98750.16;;;2.81;55.68
39491;BME280;25175;50.140;18.990;2023-01-26T14:28:47;98750.00;;;2.83;55.54
39491;BME280;25175;50.140;18.990;2023-01-26T14:31:54;98755.84;;;2.85;55.83
39491;BME280;25175;50.140;18.990;2023-01-26T14:35:00;98758.75;;;2.82;55.53
39491;BME280;25175;50.140;18.990;2023-01-26T14:38:23;98761.47;;;2.80;55.31
39491;BME280;25175;50.140;18.990;2023-01-26T14:41:34;98753.84;;;2.79;55.34
39491;BME280;25175;50.140;18.990;2023-01-26T14:44:40;98752.22;;;2.78;55.46
39491;BME280;25175;50.140;18.990;2023-01-26T14:47:44;98751.41;;;2.77;55.52
39491;BME280;25175;50.140;18.990;2023-01-26T14:50:50;98744.59;;;2.76;55.51
39491;BME280;25175;50.140;18.990;2023-01-26T14:53:57;98740.25;;;2.77;55.46
39491;BME280;25175;50.140;18.990;2023-01-26T14:57:07;98740.41;;;2.75;55.82
39491;BME280;25175;50.140;18.990;2023-01-26T15:00:25;98743.81;;;2.76;55.88
39491;BME280;25175;50.140;18.990;2023-01-26T15:03:36;98745.56;;;2.75;55.63
39491;BME280;25175;50.140;18.990;2023-01-26T15:06:43;98755.13;;;2.75;56.01
39491;BME280;25175;50.140;18.990;2023-01-26T15:09:53;98740.41;;;2.75;56.02
39491;BME280;25175;50.140;18.990;2023-01-26T15:13:03;98574.34;;;1.76;56.06
39491;BME280;25175;50.140;18.990;2023-01-26T15:16:15;98725.13;;;2.72;55.97
39491;BME280;25175;50.140;18.990;2023-01-26T15:19:22;98734.09;;;2.78;55.92
39491;BME280;25175;50.140;18.990;2023-01-26T15:22:33;98732.34;;;2.78;55.85
39491;BME280;25175;50.140;18.990;2023-01-26T15:25:37;98736.69;;;2.78;55.59
39491;BME280;25175;50.140;18.990;2023-01-26T15:28:49;98732.78;;;2.74;55.72
39491;BME280;25175;50.140;18.990;2023-01-26T15:31:55;98734.34;;;2.67;55.51
39491;BME280;25175;50.140;18.990;2023-01-26T15:35:06;98740.00;;;2.62;55.70
39491;BME280;25175;50.140;18.990;2023-01-26T15:38:22;98738.00;;;2.56;55.90
39491;BME280;25175;50.140;18.990;2023-01-26T15:41:29;98738.31;;;2.53;56.15
39491;BME280;25175;50.140;18.990;2023-01-26T15:44:36;98738.44;;;2.52;55.99
39491;BME280;25175;50.140;18.990;2023-01-26T15:47:42;98738.59;;;2.50;56.31
39491;BME280;25175;50.140;18.990;2023-01-26T15:50:47;98735.66;;;2.45;56.68
39491;BME280;25175;50.140;18.990;2023-01-26T15:53:53;98747.94;;;2.43;56.44
39491;BME280;25175;50.140;18.990;2023-01-26T15:56:59;98745.94;;;2.37;56.60
39491;BME280;25175;50.140;18.990;2023-01-26T16:00:12;98739.13;;;2.36;56.79
39491;BME280;25175;50.140;18.990;2023-01-26T16:03:19;98735.44;;;2.39;57.00
39491;BME280;25175;50.140;18.990;2023-01-26T16:06:27;98737.06;;;2.40;56.98
39491;BME280;25175;50.140;18.990;2023-01-26T16:09:32;98739.78;;;2.38;57.15
39491;BME280;25175;50.140;18.990;2023-01-26T16:12:38;98733.31;;;2.34;57.13
39491;BME280;25175;50.140;18.990;2023-01-26T16:15:46;98729.75;;;2.35;57.30
39491;BME280;25175;50.140;18.990;2023-01-26T16:18:52;98732.16;;;2.37;57.59
39491;BME280;25175;50.140;18.990;2023-01-26T16:21:56;98721.47;;;2.32;57.75
39491;BME280;25175;50.140;18.990;2023-01-26T16:25:13;98726.84;;;2.38;57.35
39491;BME280;25175;50.140;18.990;2023-01-26T16:28:24;98721.16;;;2.35;57.29
39491;BME280;25175;50.140;18.990;2023-01-26T16:31:33;98714.50;;;2.32;57.21
39491;BME280;25175;50.140;18.990;2023-01-26T16:34:38;98728.63;;;2.38;57.35
39491;BME280;25175;50.140;18.990;2023-01-26T16:37:44;98725.09;;;2.39;57.12
39491;BME280;25175;50.140;18.990;2023-01-26T16:40:48;98713.38;;;2.35;57.06
39491;BME280;25175;50.140;18.990;2023-01-26T16:44:00;98721.00;;;2.36;57.15
39491;BME280;25175;50.140;18.990;2023-01-26T16:47:10;98729.44;;;2.38;57.28
39491;BME280;25175;50.140;18.990;2023-01-26T16:50:16;98702.47;;;2.23;57.19